createdAt,value
2019-03-10T00:00:45.934Z,7.02
2019-03-10T00:03:12.882Z,6.97
2019-03-10T00:05:39.821Z,7.10
2019-03-10T00:08:08.037Z,7.09
2019-03-10T00:10:35.257Z,7.13
2019-03-10T00:13:02.235Z,7.14
2019-03-10T00:15:29.229Z,7.09
2019-03-10T00:17:56.148Z,7.05
2019-03-10T00:20:23.168Z,7.14
2019-03-10T00:22:50.117Z,7.08
2019-03-10T00:25:17.075Z,7.20
2019-03-10T00:27:44.146Z,7.14
2019-03-10T00:30:11.219Z,7.05
2019-03-10T00:32:38.167Z,7.07
2019-03-10T00:35:05.272Z,7.21
2019-03-10T00:37:32.303Z,7.18
2019-03-10T00:40:37.242Z,7.04
2019-03-10T00:43:40.286Z,7.09
2019-03-10T00:46:45.811Z,7.15
2019-03-10T00:49:48.483Z,7.08
2019-03-10T00:52:21.876Z,7.01
2019-03-10T00:54:48.823Z,6.96
2019-03-10T00:57:15.826Z,6.97
2019-03-10T00:59:42.769Z,6.89
2019-03-10T01:02:09.718Z,6.93
2019-03-10T01:04:36.645Z,6.87
2019-03-10T01:07:03.698Z,7.02
2019-03-10T01:09:30.613Z,6.91
2019-03-10T01:11:57.672Z,6.89
2019-03-10T01:14:24.641Z,6.82
2019-03-10T01:16:51.582Z,6.95
2019-03-10T01:19:18.956Z,6.91
2019-03-10T01:21:47.933Z,6.93
2019-03-10T01:24:14.910Z,6.84
2019-03-10T01:26:42.062Z,6.78
2019-03-10T01:29:08.974Z,6.84
2019-03-10T01:31:56.705Z,6.78
2019-03-10T01:34:40.256Z,6.76
2019-03-10T01:37:07.201Z,6.77
2019-03-10T01:39:34.132Z,6.81
2019-03-10T01:42:01.154Z,6.73
2019-03-10T01:44:28.521Z,6.84
2019-03-10T01:46:55.485Z,6.92
2019-03-10T01:49:22.438Z,6.74
2019-03-10T01:51:49.408Z,6.71
2019-03-10T01:54:16.387Z,6.78
2019-03-10T01:56:43.505Z,6.58
2019-03-10T01:59:10.435Z,6.68
2019-03-10T02:01:37.398Z,6.82
2019-03-10T02:04:04.395Z,6.84
2019-03-10T02:06:31.360Z,6.72
2019-03-10T02:11:35.588Z,6.87
2019-03-10T02:14:02.553Z,6.76
2019-03-10T02:16:30.434Z,6.66
2019-03-10T02:18:57.507Z,6.86
2019-03-10T02:21:24.430Z,6.82
2019-03-10T02:23:51.416Z,6.74
2019-03-10T02:26:18.323Z,6.74
2019-03-10T02:28:45.288Z,6.83
2019-03-10T02:31:12.214Z,6.83
2019-03-10T02:33:39.765Z,6.88
2019-03-10T02:36:06.686Z,6.60
2019-03-10T02:38:33.698Z,6.76
2019-03-10T02:41:00.642Z,6.76
2019-03-10T02:43:27.600Z,6.83
2019-03-10T02:45:54.504Z,6.83
2019-03-10T02:48:21.493Z,6.88
2019-03-10T02:50:48.434Z,6.91
2019-03-10T02:53:15.412Z,6.83
2019-03-10T02:55:42.374Z,6.85
2019-03-10T02:58:09.334Z,6.84
2019-03-10T03:00:36.301Z,6.94
2019-03-10T03:03:03.295Z,6.91
2019-03-10T03:05:30.296Z,6.91
2019-03-10T03:07:57.287Z,6.93
2019-03-10T03:10:24.276Z,6.90
2019-03-10T03:12:51.342Z,6.89
2019-03-10T03:15:18.340Z,6.99
2019-03-10T03:17:45.370Z,6.98
2019-03-10T03:20:12.614Z,6.96
2019-03-10T03:22:39.580Z,7.04
2019-03-10T03:25:06.968Z,6.88
2019-03-10T03:27:33.930Z,6.91
2019-03-10T03:30:00.902Z,6.97
2019-03-10T03:32:27.835Z,6.95
2019-03-10T03:34:54.784Z,6.84
2019-03-10T03:37:22.496Z,6.94
2019-03-10T03:39:51.244Z,6.94
2019-03-10T03:42:18.192Z,6.95
2019-03-10T03:44:45.122Z,7.08
2019-03-10T03:47:12.163Z,7.05
2019-03-10T03:49:39.168Z,7.08
2019-03-10T03:52:06.079Z,7.07
2019-03-10T03:54:32.994Z,6.95
2019-03-10T03:56:59.916Z,7.07
2019-03-10T03:59:26.867Z,6.90
2019-03-10T04:01:57.764Z,6.94
2019-03-10T04:04:24.754Z,6.84
2019-03-10T04:06:51.676Z,6.84
2019-03-10T04:09:18.633Z,6.99
2019-03-10T04:11:45.622Z,6.97
2019-03-10T04:14:12.540Z,6.86
2019-03-10T04:16:39.765Z,6.94
2019-03-10T04:19:06.719Z,6.78
2019-03-10T04:21:33.659Z,6.76
2019-03-10T04:24:00.593Z,6.71
2019-03-10T04:26:28.571Z,6.77
2019-03-10T04:28:55.510Z,6.55
2019-03-10T04:31:22.445Z,6.48
2019-03-10T04:33:49.429Z,6.38
2019-03-10T04:36:16.356Z,6.61
2019-03-10T04:38:43.288Z,6.71
2019-03-10T04:41:10.274Z,6.59
2019-03-10T04:43:37.184Z,6.70
2019-03-10T04:46:04.217Z,6.73
2019-03-10T04:48:31.132Z,6.67
2019-03-10T04:50:58.126Z,6.52
2019-03-10T04:53:25.110Z,6.63
2019-03-10T04:56:00.129Z,6.77
2019-03-10T04:58:27.072Z,6.71
2019-03-10T05:00:55.654Z,6.63
2019-03-10T05:03:22.595Z,6.61
2019-03-10T05:05:49.544Z,6.60
2019-03-10T05:08:16.479Z,6.60
2019-03-10T05:10:43.588Z,6.52
2019-03-10T05:13:10.544Z,6.38
2019-03-10T05:15:37.532Z,6.45
2019-03-10T05:18:04.472Z,6.49
2019-03-10T05:20:31.426Z,6.36
2019-03-10T05:23:29.825Z,6.39
2019-03-10T05:25:56.851Z,6.28
2019-03-10T05:28:23.788Z,6.31
2019-03-10T05:30:50.822Z,6.28
2019-03-10T05:33:17.739Z,6.31
2019-03-10T05:35:44.713Z,6.37
2019-03-10T05:38:11.658Z,6.22
2019-03-10T05:40:38.650Z,6.18
2019-03-10T05:43:05.552Z,6.20
2019-03-10T05:45:32.527Z,6.21
2019-03-10T05:47:59.445Z,6.24
2019-03-10T05:50:26.398Z,6.15
2019-03-10T05:52:53.334Z,6.18
2019-03-10T05:55:20.294Z,6.15
2019-03-10T05:57:47.197Z,6.19
2019-03-10T06:00:14.145Z,6.16
2019-03-10T06:02:41.084Z,6.14
2019-03-10T06:05:08.078Z,6.04
2019-03-10T06:07:34.998Z,6.06
2019-03-10T06:10:01.955Z,6.08
2019-03-10T06:12:28.923Z,6.10
2019-03-10T06:14:55.858Z,6.08
2019-03-10T06:17:22.814Z,6.13
2019-03-10T06:19:49.765Z,6.07
2019-03-10T06:22:16.737Z,6.13
2019-03-10T06:24:43.683Z,6.04
2019-03-10T06:27:10.660Z,6.06
2019-03-10T06:29:37.583Z,6.08
2019-03-10T06:32:04.516Z,6.01
2019-03-10T06:34:31.483Z,6.02
2019-03-10T06:36:58.426Z,6.02
2019-03-10T06:39:25.372Z,6.06
2019-03-10T06:41:52.332Z,6.22
2019-03-10T06:44:20.948Z,6.10
2019-03-10T06:46:48.123Z,6.13
2019-03-10T06:49:15.048Z,6.05
2019-03-10T06:51:42.045Z,6.06
2019-03-10T06:54:08.968Z,6.03
2019-03-10T06:56:35.908Z,5.99
2019-03-10T06:59:02.832Z,6.08
2019-03-10T07:01:29.812Z,6.02
2019-03-10T07:03:56.763Z,6.04
2019-03-10T07:06:23.734Z,5.88
2019-03-10T07:08:50.659Z,5.86
2019-03-10T07:11:17.673Z,5.90
2019-03-10T07:13:44.600Z,5.96
2019-03-10T07:16:11.506Z,5.93
2019-03-10T07:18:38.484Z,5.89
2019-03-10T07:21:05.400Z,5.93
2019-03-10T07:23:32.477Z,5.82
2019-03-10T07:26:05.772Z,5.82
2019-03-10T07:28:39.392Z,5.86
2019-03-10T07:31:31.596Z,5.81
2019-03-10T07:34:27.149Z,5.78
2019-03-10T07:37:07.790Z,5.88
2019-03-10T07:40:03.377Z,5.95
2019-03-10T07:42:48.593Z,6.02
2019-03-10T07:45:27.598Z,5.94
2019-03-10T07:48:14.179Z,5.90
2019-03-10T07:50:50.508Z,5.91
2019-03-10T07:53:37.352Z,6.19
2019-03-10T07:56:35.845Z,6.10
2019-03-10T07:59:28.362Z,6.04
2019-03-10T08:02:13.232Z,6.25
2019-03-10T08:04:57.376Z,6.27
2019-03-10T08:07:44.049Z,6.19
2019-03-10T08:10:30.980Z,6.08
2019-03-10T08:13:12.809Z,6.03
2019-03-10T08:15:56.289Z,6.13
2019-03-10T08:18:30.217Z,6.32
2019-03-10T08:21:25.513Z,6.25
2019-03-10T08:24:24.160Z,6.08
2019-03-10T08:27:09.476Z,6.29
2019-03-10T08:29:42.693Z,6.24
2019-03-10T08:32:25.996Z,6.15
2019-03-10T08:35:12.603Z,6.27
2019-03-10T08:38:07.960Z,6.21
2019-03-10T08:41:00.580Z,6.28
2019-03-10T08:43:46.220Z,6.23
2019-03-10T08:46:24.042Z,6.11
2019-03-10T08:49:25.474Z,6.23
2019-03-10T08:52:14.490Z,6.22
2019-03-10T08:54:59.835Z,6.24
2019-03-10T08:57:44.787Z,6.13
2019-03-10T09:00:30.406Z,6.13
2019-03-10T09:03:28.925Z,6.34
2019-03-10T09:06:08.040Z,6.20
2019-03-10T09:09:03.465Z,6.12
2019-03-10T09:11:49.111Z,6.22
2019-03-10T09:14:38.715Z,6.19
2019-03-10T09:17:25.252Z,6.23
2019-03-10T09:20:03.946Z,6.22
2019-03-10T09:22:50.489Z,6.32
2019-03-10T09:25:37.053Z,6.09
2019-03-10T09:28:13.282Z,6.20
2019-03-10T09:31:11.811Z,6.29
2019-03-10T09:33:46.753Z,6.26
2019-03-10T09:36:41.319Z,6.30
2019-03-10T09:39:26.306Z,6.38
2019-03-10T09:42:15.452Z,6.47
2019-03-10T09:44:57.047Z,6.47
2019-03-10T09:47:34.713Z,6.52
2019-03-10T09:50:24.323Z,6.37
2019-03-10T09:53:16.680Z,6.32
2019-03-10T09:55:54.194Z,6.32
2019-03-10T09:58:37.440Z,6.19
2019-03-10T10:01:16.620Z,6.25
2019-03-10T10:04:18.709Z,6.35
2019-03-10T10:06:59.674Z,6.31
2019-03-10T10:09:46.232Z,6.35
2019-03-10T10:12:33.271Z,6.39
2019-03-10T10:15:06.986Z,6.68
2019-03-10T10:17:56.833Z,6.51
2019-03-10T10:20:46.242Z,6.48
2019-03-10T10:23:32.792Z,6.38
2019-03-10T10:26:17.758Z,6.43
2019-03-10T10:28:56.159Z,6.32
2019-03-10T10:31:48.532Z,6.29
2019-03-10T10:34:27.306Z,6.25
2019-03-10T10:37:12.533Z,6.29
2019-03-10T10:39:50.474Z,6.49
2019-03-10T10:42:31.437Z,6.51
2019-03-10T10:45:26.702Z,6.44
2019-03-10T10:48:11.788Z,6.31
2019-03-10T10:50:58.849Z,6.50
2019-03-10T10:53:48.327Z,6.50
2019-03-10T10:56:34.908Z,6.73
2019-03-10T10:59:19.870Z,6.51
2019-03-10T11:02:01.271Z,6.44
2019-03-10T11:04:43.692Z,6.48
2019-03-10T11:07:17.139Z,6.50
2019-03-10T11:10:06.472Z,6.67
2019-03-10T11:12:58.854Z,6.79
2019-03-10T11:15:42.645Z,6.58
2019-03-10T11:18:31.407Z,6.60
2019-03-10T11:21:17.964Z,6.52
2019-03-10T11:23:57.006Z,6.45
2019-03-10T11:26:43.034Z,6.50
2019-03-10T11:29:29.576Z,6.42
2019-03-10T11:32:16.157Z,6.64
2019-03-10T11:35:20.795Z,6.72
2019-03-10T11:38:07.387Z,6.43
2019-03-10T11:40:59.963Z,6.48
2019-03-10T11:43:38.240Z,6.63
2019-03-10T11:46:21.357Z,6.61
2019-03-10T11:49:10.423Z,6.77
2019-03-10T11:51:53.502Z,6.77
2019-03-10T11:54:36.839Z,6.71
2019-03-10T11:57:11.932Z,6.88
2019-03-10T11:59:46.504Z,6.89
2019-03-10T12:02:25.484Z,6.81
2019-03-10T12:05:18.157Z,6.86
2019-03-10T12:08:03.430Z,6.70
2019-03-10T12:10:30.393Z,6.69
2019-03-10T12:12:57.320Z,6.85
2019-03-10T12:15:24.264Z,6.90
2019-03-10T12:17:51.223Z,6.72
2019-03-10T12:20:18.160Z,6.71
2019-03-10T12:22:45.114Z,6.61
2019-03-10T12:25:12.322Z,6.58
2019-03-10T12:27:39.293Z,6.77
2019-03-10T12:30:06.780Z,6.70
2019-03-10T12:32:33.755Z,6.76
2019-03-10T12:35:00.658Z,6.90
2019-03-10T12:37:27.642Z,6.86
2019-03-10T12:39:54.576Z,6.85
2019-03-10T12:42:21.554Z,6.88
2019-03-10T12:44:48.470Z,6.79
2019-03-10T12:47:15.435Z,6.89
2019-03-10T12:49:42.352Z,6.98
2019-03-10T12:52:09.289Z,7.00
2019-03-10T12:54:36.201Z,7.02
2019-03-10T12:57:03.135Z,7.08
2019-03-10T12:59:30.048Z,7.14
2019-03-10T13:01:56.957Z,7.16
2019-03-10T13:04:23.964Z,7.14
2019-03-10T13:06:50.881Z,7.14
2019-03-10T13:09:18.122Z,7.27
2019-03-10T13:11:45.052Z,7.26
2019-03-10T13:14:12.003Z,7.51
2019-03-10T13:16:38.932Z,7.33
2019-03-10T13:19:05.876Z,7.26
2019-03-10T13:21:32.824Z,7.41
2019-03-10T13:23:59.838Z,7.50
2019-03-10T13:26:26.760Z,7.34
2019-03-10T13:28:53.819Z,7.30
2019-03-10T13:31:20.879Z,7.39
2019-03-10T13:33:47.907Z,7.36
2019-03-10T13:36:14.848Z,7.16
2019-03-10T13:38:42.604Z,7.20
2019-03-10T13:41:09.563Z,7.32
2019-03-10T13:43:36.490Z,7.58
2019-03-10T13:46:03.474Z,7.58
2019-03-10T13:48:30.427Z,7.66
2019-03-10T13:50:57.352Z,7.84
2019-03-10T13:53:24.302Z,7.91
2019-03-10T13:55:51.243Z,7.87
2019-03-10T13:58:18.192Z,8.05
2019-03-10T14:00:45.139Z,8.13
2019-03-10T14:03:12.094Z,8.16
2019-03-10T14:05:39.037Z,8.22
2019-03-10T14:08:05.969Z,8.33
2019-03-10T14:10:32.891Z,8.43
2019-03-10T14:12:59.870Z,8.59
2019-03-10T14:15:26.796Z,8.89
2019-03-10T14:17:53.684Z,8.98
2019-03-10T14:20:20.730Z,9.16
2019-03-10T14:22:47.677Z,9.25
2019-03-10T14:25:14.852Z,9.29
2019-03-10T14:27:41.856Z,9.34
2019-03-10T14:30:08.981Z,9.28
2019-03-10T14:32:35.905Z,9.31
2019-03-10T14:35:03.054Z,9.27
2019-03-10T14:37:29.959Z,9.30
2019-03-10T14:39:56.916Z,9.25
2019-03-10T14:42:24.699Z,9.31
2019-03-10T14:44:51.655Z,9.31
2019-03-10T14:47:19.588Z,9.29
2019-03-10T14:49:46.691Z,9.31
2019-03-10T14:52:13.618Z,9.56
2019-03-10T14:54:40.580Z,9.58
2019-03-10T14:57:07.542Z,9.43
2019-03-10T14:59:34.497Z,9.33
2019-03-10T15:02:01.554Z,9.15
2019-03-10T15:04:28.490Z,9.05
2019-03-10T15:06:55.714Z,9.03
2019-03-10T15:09:23.570Z,8.83
2019-03-10T15:11:50.493Z,8.77
2019-03-10T15:14:17.449Z,8.77
2019-03-10T15:16:44.362Z,8.61
2019-03-10T15:19:12.198Z,8.58
2019-03-10T15:21:39.363Z,8.34
2019-03-10T15:24:06.339Z,8.28
2019-03-10T15:26:33.363Z,8.19
2019-03-10T15:29:00.322Z,8.08
2019-03-10T15:31:27.572Z,8.14
2019-03-10T15:33:54.491Z,8.11
2019-03-10T15:36:21.593Z,8.03
2019-03-10T15:38:48.498Z,8.04
2019-03-10T15:41:15.589Z,8.14
2019-03-10T15:43:42.507Z,8.11
2019-03-10T15:46:09.626Z,8.02
2019-03-10T15:48:36.654Z,8.10
2019-03-10T15:51:03.730Z,8.00
2019-03-10T15:53:30.671Z,8.00
2019-03-10T15:55:57.709Z,7.96
2019-03-10T15:58:24.640Z,7.95
2019-03-10T16:00:51.622Z,7.97
2019-03-10T16:03:18.574Z,8.05
2019-03-10T16:05:45.615Z,7.93
2019-03-10T16:08:12.492Z,8.09
2019-03-10T16:10:39.454Z,8.05
2019-03-10T16:13:11.535Z,8.03
2019-03-10T16:15:38.583Z,7.99
2019-03-10T16:18:05.529Z,8.12
2019-03-10T16:20:32.672Z,8.10
2019-03-10T16:22:59.655Z,8.07
2019-03-10T16:25:26.678Z,8.12
2019-03-10T16:27:53.603Z,8.05
2019-03-10T16:30:20.609Z,8.10
2019-03-10T16:32:47.555Z,8.08
2019-03-10T16:35:14.975Z,7.52
2019-03-10T16:37:41.937Z,7.26
2019-03-10T16:40:10.888Z,6.88
2019-03-10T16:42:37.844Z,6.10
2019-03-10T16:45:06.360Z,5.79
2019-03-10T16:47:33.323Z,5.30
2019-03-10T16:50:00.365Z,5.02
2019-03-10T16:52:27.488Z,4.56
2019-03-10T16:54:54.401Z,4.49
2019-03-10T16:57:21.348Z,4.30
2019-03-10T16:59:48.431Z,4.06
2019-03-10T17:02:15.365Z,3.72
2019-03-10T17:04:42.272Z,3.40
2019-03-10T17:07:09.244Z,3.21
2019-03-10T17:09:36.159Z,3.17
2019-03-10T17:12:03.172Z,3.16
2019-03-10T17:14:30.134Z,2.91
2019-03-10T17:16:57.087Z,2.78
2019-03-10T17:19:24.013Z,2.61
2019-03-10T17:21:50.938Z,2.53
2019-03-10T17:24:17.989Z,2.41
2019-03-10T17:26:44.931Z,2.31
2019-03-10T17:29:11.842Z,2.26
2019-03-10T17:31:38.840Z,2.28
2019-03-10T17:34:06.080Z,2.24
2019-03-10T17:36:33.356Z,2.09
2019-03-10T17:39:00.283Z,2.08
2019-03-10T17:41:27.450Z,2.03
2019-03-10T17:43:54.403Z,1.97
2019-03-10T17:46:21.421Z,1.89
2019-03-10T17:48:48.360Z,1.92
2019-03-10T17:51:15.309Z,1.85
2019-03-10T17:53:42.231Z,1.68
2019-03-10T17:56:09.177Z,1.80
2019-03-10T17:58:36.141Z,1.59
2019-03-10T18:01:03.069Z,1.51
2019-03-10T18:03:29.969Z,1.47
2019-03-10T18:05:56.896Z,1.55
2019-03-10T18:08:23.943Z,1.69
2019-03-10T18:10:50.846Z,1.75
2019-03-10T18:13:17.793Z,1.51
2019-03-10T18:15:44.706Z,1.58
2019-03-10T18:18:11.929Z,1.61
2019-03-10T18:20:38.837Z,1.50
2019-03-10T18:23:05.781Z,1.38
2019-03-10T18:25:32.704Z,1.49
2019-03-10T18:27:59.743Z,1.51
2019-03-10T18:30:26.761Z,1.59
2019-03-10T18:32:53.724Z,1.54
2019-03-10T18:35:20.657Z,1.52
2019-03-10T18:37:47.596Z,1.64
2019-03-10T18:40:16.498Z,1.51
2019-03-10T18:42:43.455Z,1.57
2019-03-10T18:45:12.727Z,1.69
2019-03-10T18:47:39.710Z,1.62
2019-03-10T18:50:08.185Z,1.70
2019-03-10T18:52:35.183Z,1.71
2019-03-10T18:55:02.081Z,1.81
2019-03-10T18:57:29.097Z,1.92
2019-03-10T18:59:55.999Z,1.85
2019-03-10T19:02:22.909Z,2.03
2019-03-10T19:04:52.706Z,2.00
2019-03-10T19:07:19.655Z,1.96
2019-03-10T19:09:46.563Z,2.08
2019-03-10T19:12:13.634Z,2.11
2019-03-10T19:14:40.585Z,2.14
2019-03-10T19:17:07.527Z,2.13
2019-03-10T19:19:34.446Z,2.18
2019-03-10T19:22:01.681Z,2.13
2019-03-10T19:24:28.570Z,2.11
2019-03-10T19:26:55.485Z,2.34
2019-03-10T19:29:22.489Z,2.31
2019-03-10T19:31:49.476Z,2.42
2019-03-10T19:34:16.409Z,2.43
2019-03-10T19:36:43.331Z,2.50
2019-03-10T19:39:10.269Z,2.51
2019-03-10T19:41:37.212Z,2.40
2019-03-10T19:44:04.165Z,2.52
2019-03-10T19:46:31.103Z,2.48
2019-03-10T19:48:58.058Z,2.37
2019-03-10T19:51:24.984Z,2.40
2019-03-10T19:53:51.926Z,2.34
2019-03-10T19:56:18.837Z,2.50
2019-03-10T19:58:45.776Z,2.41
2019-03-10T20:01:12.717Z,2.50
2019-03-10T20:03:39.666Z,2.56
2019-03-10T20:06:06.570Z,2.50
2019-03-10T20:08:33.700Z,2.48
2019-03-10T20:11:00.612Z,2.64
2019-03-10T20:13:27.590Z,2.69
2019-03-10T20:15:54.503Z,2.60
2019-03-10T20:18:21.465Z,2.48
2019-03-10T20:20:48.417Z,2.54
2019-03-10T20:23:15.336Z,2.70
2019-03-10T20:25:42.494Z,2.78
2019-03-10T20:28:09.602Z,2.86
2019-03-10T20:30:36.601Z,2.84
2019-03-10T20:33:03.560Z,3.05
2019-03-10T20:35:30.500Z,2.94
2019-03-10T20:37:57.436Z,3.02
2019-03-10T20:40:24.549Z,3.02
2019-03-10T20:42:51.862Z,2.98
2019-03-10T20:45:18.806Z,3.11
2019-03-10T20:47:45.715Z,3.10
2019-03-10T20:50:13.153Z,3.02
2019-03-10T20:52:40.099Z,3.10
2019-03-10T20:55:07.537Z,3.08
2019-03-10T20:57:34.456Z,3.07
2019-03-10T21:00:01.428Z,2.99
2019-03-10T21:02:28.370Z,2.92
2019-03-10T21:04:55.509Z,2.89
2019-03-10T21:07:22.468Z,2.83
2019-03-10T21:09:49.445Z,2.87
2019-03-10T21:12:16.365Z,2.90
2019-03-10T21:14:43.348Z,2.87
2019-03-10T21:17:10.255Z,3.01
2019-03-10T21:19:37.219Z,2.96
2019-03-10T21:22:04.137Z,2.99
2019-03-10T21:24:31.194Z,3.15
2019-03-10T21:26:58.114Z,3.12
2019-03-10T21:29:25.063Z,3.07
2019-03-10T21:31:52.006Z,3.23
2019-03-10T21:34:18.971Z,3.08
2019-03-10T21:36:45.954Z,3.16
2019-03-10T21:39:12.863Z,3.04
2019-03-10T21:41:39.978Z,3.15
2019-03-10T21:44:06.897Z,3.12
2019-03-10T21:46:33.912Z,3.07
2019-03-10T21:49:00.868Z,3.06
2019-03-10T21:51:27.849Z,3.07
2019-03-10T21:53:54.756Z,3.08
2019-03-10T21:56:21.704Z,3.09
2019-03-10T21:58:49.773Z,2.97
2019-03-10T22:01:16.713Z,3.05
2019-03-10T22:03:43.645Z,3.11
2019-03-10T22:06:10.601Z,3.10
2019-03-10T22:08:37.546Z,3.17
2019-03-10T22:11:04.523Z,3.13
2019-03-10T22:13:31.437Z,3.02
2019-03-10T22:15:58.384Z,2.98
2019-03-10T22:18:25.306Z,3.08
2019-03-10T22:20:52.263Z,3.15
2019-03-10T22:23:19.207Z,3.08
2019-03-10T22:25:46.159Z,3.10
2019-03-10T22:28:13.076Z,3.00
2019-03-10T22:30:40.016Z,2.88
2019-03-10T22:33:06.936Z,3.13
2019-03-10T22:35:33.888Z,3.23
2019-03-10T22:38:00.803Z,3.21
2019-03-10T22:40:28.239Z,3.19
2019-03-10T22:42:55.188Z,3.26
2019-03-10T22:45:22.396Z,2.98
2019-03-10T22:47:49.343Z,3.23
2019-03-10T22:50:16.505Z,3.17
2019-03-10T22:52:43.469Z,3.12
2019-03-10T22:55:10.805Z,3.18
2019-03-10T22:57:37.742Z,3.22
2019-03-10T23:00:09.251Z,3.16
2019-03-10T23:02:36.189Z,3.13
2019-03-10T23:05:03.137Z,3.11
2019-03-10T23:07:30.075Z,3.20
2019-03-10T23:09:56.998Z,3.31
2019-03-10T23:12:23.930Z,3.21
2019-03-10T23:14:50.833Z,3.16
2019-03-10T23:17:17.800Z,3.29
2019-03-10T23:19:44.708Z,3.15
2019-03-10T23:22:11.637Z,3.16
2019-03-10T23:24:40.166Z,3.03
2019-03-10T23:27:08.901Z,2.91
2019-03-10T23:29:37.181Z,2.97
2019-03-10T23:32:04.243Z,2.91
2019-03-10T23:34:31.151Z,2.86
2019-03-10T23:36:58.189Z,2.97
2019-03-10T23:39:25.178Z,2.92
2019-03-10T23:41:52.298Z,2.78
2019-03-10T23:44:19.411Z,2.72
2019-03-10T23:46:46.349Z,2.76
2019-03-10T23:49:13.260Z,2.71
2019-03-10T23:51:40.208Z,2.69
2019-03-10T23:54:07.153Z,2.80
2019-03-10T23:56:34.100Z,2.72
2019-03-10T23:59:01.020Z,2.82
